sensor_id;sensor_type;location;lat;lon;timestamp;pressure;altitude;pressure_sealevel;temperature;humidity
21664;BME280;10993;52.510;13.456;2024-02-21T00:01:44;57054.84;;;-146.93;88.88
21664;BME280;10993;52.510;13.456;2024-02-21T00:06:45;57073.06;;;-146.93;88.72
21664;BME280;10993;52.510;13.456;2024-02-21T00:11:45;57067.00;;;-146.93;88.77
21664;BME280;10993;52.510;13.456;2024-02-21T00:16:47;57050.81;;;-146.93;89.16
21664;BME280;10993;52.510;13.456;2024-02-21T00:21:47;57067.00;;;-146.93;88.93
21664;BME280;10993;52.510;13.456;2024-02-21T00:26:48;57071.06;;;-146.93;89.03
21664;BME280;10993;52.510;13.456;2024-02-21T00:31:49;57010.31;;;-146.93;89.51
21664;BME280;10993;52.510;13.456;2024-02-21T00:36:50;57107.50;;;-146.93;90.35
21664;BME280;10993;52.510;13.456;2024-02-21T00:41:51;57156.09;;;-146.93;91.04
21664;BME280;10993;52.510;13.456;2024-02-21T00:46:53;57113.56;;;-146.93;90.52
21664;BME280;10993;52.510;13.456;2024-02-21T00:51:53;57087.25;;;-146.93;90.25
21664;BME280;10993;52.510;13.456;2024-02-21T00:56:53;57091.31;;;-146.93;89.45
21664;BME280;10993;52.510;13.456;2024-02-21T01:01:55;57026.50;;;-146.93;88.37
21664;BME280;10993;52.510;13.456;2024-02-21T01:06:55;57024.47;;;-146.93;87.92
21664;BME280;10993;52.510;13.456;2024-02-21T01:11:56;57014.34;;;-146.93;87.81
21664;BME280;10993;52.510;13.456;2024-02-21T01:16:57;56917.16;;;-146.93;87.55
21664;BME280;10993;52.510;13.456;2024-02-21T01:21:58;57030.56;;;-146.93;87.85
21664;BME280;10993;52.510;13.456;2024-02-21T01:26:58;56953.59;;;-146.93;87.63
21664;BME280;10993;52.510;13.456;2024-02-21T01:32:00;57006.25;;;-146.93;86.82
21664;BME280;10993;52.510;13.456;2024-02-21T01:37:00;57032.56;;;-146.93;86.54
21664;BME280;10993;52.510;13.456;2024-02-21T01:42:04;57024.47;;;-146.93;86.08
21664;BME280;10993;52.510;13.456;2024-02-21T01:47:06;56967.78;;;-146.93;86.28
21664;BME280;10993;52.510;13.456;2024-02-21T01:52:07;56917.16;;;-146.93;86.37
21664;BME280;10993;52.510;13.456;2024-02-21T01:57:08;57022.44;;;-146.93;85.91
21664;BME280;10993;52.510;13.456;2024-02-21T02:02:10;56965.75;;;-146.93;86.20
21664;BME280;10993;52.510;13.456;2024-02-21T02:07:11;56990.06;;;-146.93;85.15
21664;BME280;10993;52.510;13.456;2024-02-21T02:12:11;56986.00;;;-146.93;85.48
21664;BME280;10993;52.510;13.456;2024-02-21T02:17:13;56876.66;;;-146.93;85.48
21664;BME280;10993;52.510;13.456;2024-02-21T02:22:18;56935.38;;;-146.93;86.45
21664;BME280;10993;52.510;13.456;2024-02-21T02:27:23;57006.25;;;-146.93;89.62
21664;BME280;10993;52.510;13.456;2024-02-21T02:32:24;57184.44;;;-146.93;91.99
21664;BME280;10993;52.510;13.456;2024-02-21T02:37:24;57322.16;;;-146.93;94.40
21664;BME280;10993;52.510;13.456;2024-02-21T02:42:26;57366.72;;;-146.93;95.55
21664;BME280;10993;52.510;13.456;2024-02-21T02:47:27;57538.84;;;-146.93;96.51
21664;BME280;10993;52.510;13.456;2024-02-21T02:52:27;57656.31;;;-146.93;97.42
21664;BME280;10993;52.510;13.456;2024-02-21T02:57:29;57830.50;;;-146.93;98.44
21664;BME280;10993;52.510;13.456;2024-02-21T03:02:29;57948.00;;;-146.93;99.08
21664;BME280;10993;52.510;13.456;2024-02-21T03:07:31;57862.91;;;-146.93;99.72
21664;BME280;10993;52.510;13.456;2024-02-21T03:12:32;58270.06;;;-146.93;100.00
21664;BME280;10993;52.510;13.456;2024-02-21T03:17:33;58288.28;;;-146.93;100.00
21664;BME280;10993;52.510;13.456;2024-02-21T03:22:36;58723.84;;;-146.93;100.00
21664;BME280;10993;52.510;13.456;2024-02-21T03:27:38;58871.75;;;-146.93;100.00
21664;BME280;10993;52.510;13.456;2024-02-21T03:32:38;59112.88;;;-146.93;100.00
21664;BME280;10993;52.510;13.456;2024-02-21T03:37:39;59465.44;;;-146.93;100.00
21664;BME280;10993;52.510;13.456;2024-02-21T03:42:41;59805.91;;;-146.93;100.00
21664;BME280;10993;52.510;13.456;2024-02-21T03:47:41;60513.28;;;-146.93;100.00
21664;BME280;10993;52.510;13.456;2024-02-21T03:52:41;60754.50;;;-146.93;100.00
21664;BME280;10993;52.510;13.456;2024-02-21T03:57:44;61224.84;;;-146.93;100.00
21664;BME280;10993;52.510;13.456;2024-02-21T04:02:44;61551.28;;;-146.93;100.00
21664;BME280;10993;52.510;13.456;2024-02-21T04:07:44;61439.75;;;-146.93;100.00
21664;BME280;10993;52.510;13.456;2024-02-21T04:12:46;61707.41;;;-146.93;100.00
21664;BME280;10993;52.510;13.456;2024-02-21T04:17:46;61954.81;;;-146.93;100.00
21664;BME280;10993;52.510;13.456;2024-02-21T04:22:47;61533.03;;;-146.93;100.00
21664;BME280;10993;52.510;13.456;2024-02-21T04:27:49;61571.56;;;-146.93;100.00
21664;BME280;10993;52.510;13.456;2024-02-21T04:32:49;61654.69;;;-146.93;100.00
21664;BME280;10993;52.510;13.456;2024-02-21T04:37:50;62076.47;;;-146.93;100.00
21664;BME280;10993;52.510;13.456;2024-02-21T04:42:51;62238.72;;;-146.93;100.00
21664;BME280;10993;52.510;13.456;2024-02-21T04:47:52;62135.28;;;-146.93;100.00
21664;BME280;10993;52.510;13.456;2024-02-21T04:52:52;62173.81;;;-146.93;100.00
21664;BME280;10993;52.510;13.456;2024-02-21T04:57:54;62325.94;;;-146.93;100.00
21664;BME280;10993;52.510;13.456;2024-02-21T05:02:54;62212.38;;;-146.93;100.00
21664;BME280;10993;52.510;13.456;2024-02-21T05:07:54;61966.97;;;-146.93;100.00
21664;BME280;10993;52.510;13.456;2024-02-21T05:12:57;62135.28;;;-146.93;100.00
21664;BME280;10993;52.510;13.456;2024-02-21T05:17:57;61715.53;;;-146.93;100.00
21664;BME280;10993;52.510;13.456;2024-02-21T05:22:57;61634.41;;;-146.93;100.00
21664;BME280;10993;52.510;13.456;2024-02-21T05:27:59;61395.16;;;-146.93;100.00
21664;BME280;10993;52.510;13.456;2024-02-21T05:33:04;60997.78;;;-146.93;100.00
21664;BME280;10993;52.510;13.456;2024-02-21T05:38:04;61208.63;;;-146.93;100.00
21664;BME280;10993;52.510;13.456;2024-02-21T05:43:13;60890.31;;;-146.93;100.00
21664;BME280;10993;52.510;13.456;2024-02-21T05:48:13;60734.22;;;-146.93;100.00
21664;BME280;10993;52.510;13.456;2024-02-21T05:53:14;60640.97;;;-146.93;100.00
21664;BME280;10993;52.510;13.456;2024-02-21T05:58:15;61066.69;;;-146.93;100.00
21664;BME280;10993;52.510;13.456;2024-02-21T06:03:15;60677.47;;;-146.93;100.00
21664;BME280;10993;52.510;13.456;2024-02-21T06:08:16;61022.09;;;-146.93;100.00
21664;BME280;10993;52.510;13.456;2024-02-21T06:13:17;61131.56;;;-146.93;100.00
21664;BME280;10993;52.510;13.456;2024-02-21T06:18:18;60967.34;;;-146.93;100.00
21664;BME280;10993;52.510;13.456;2024-02-21T06:23:19;60718.00;;;-146.93;100.00
21664;BME280;10993;52.510;13.456;2024-02-21T06:28:20;60521.38;;;-146.93;100.00
21664;BME280;10993;52.510;13.456;2024-02-21T06:33:21;60928.84;;;-146.93;100.00
21664;BME280;10993;52.510;13.456;2024-02-21T06:38:24;60624.75;;;-146.93;100.00
21664;BME280;10993;52.510;13.456;2024-02-21T06:43:26;60418.00;;;-146.93;100.00
21664;BME280;10993;52.510;13.456;2024-02-21T06:48:26;60468.66;;;-146.93;100.00
21664;BME280;10993;52.510;13.456;2024-02-21T06:53:27;59850.50;;;-146.93;100.00
21664;BME280;10993;52.510;13.456;2024-02-21T06:58:28;59848.47;;;-146.93;100.00
21664;BME280;10993;52.510;13.456;2024-02-21T07:03:29;59605.28;;;-146.93;100.00
21664;BME280;10993;52.510;13.456;2024-02-21T07:08:29;59457.34;;;-146.93;100.00
21664;BME280;10993;52.510;13.456;2024-02-21T07:13:32;59501.91;;;-146.93;100.00
21664;BME280;10993;52.510;13.456;2024-02-21T07:18:32;59222.28;;;-146.93;100.00
21664;BME280;10993;52.510;13.456;2024-02-21T07:23:33;59232.41;;;-146.93;100.00
21664;BME280;10993;52.510;13.456;2024-02-21T07:28:34;59149.34;;;-146.93;100.00
21664;BME280;10993;52.510;13.456;2024-02-21T07:33:35;58754.25;;;-146.93;100.00
21664;BME280;10993;52.510;13.456;2024-02-21T07:38:35;58590.13;;;-146.93;100.00
21664;BME280;10993;52.510;13.456;2024-02-21T07:43:37;59495.84;;;-146.93;99.76
21664;BME280;10993;52.510;13.456;2024-02-21T07:48:37;58353.13;;;-146.93;98.97
21664;BME280;10993;52.510;13.456;2024-02-21T07:53:38;58261.97;;;-146.93;98.71
21664;BME280;10993;52.510;13.456;2024-02-21T07:58:40;58029.00;;;-146.93;97.57
21664;BME280;10993;52.510;13.456;2024-02-21T08:03:41;58026.97;;;-146.93;97.40
21664;BME280;10993;52.510;13.456;2024-02-21T08:08:41;57883.19;;;-146.93;96.78
21664;BME280;10993;52.510;13.456;2024-02-21T08:13:43;57830.50;;;-146.93;96.07
21664;BME280;10993;52.510;13.456;2024-02-21T08:18:43;57800.13;;;-146.93;96.08
21664;BME280;10993;52.510;13.456;2024-02-21T08:23:44;57662.41;;;-146.93;94.98
21664;BME280;10993;52.510;13.456;2024-02-21T08:28:46;57625.94;;;-146.93;94.47
21664;BME280;10993;52.510;13.456;2024-02-21T08:33:46;57553.03;;;-146.93;93.77
21664;BME280;10993;52.510;13.456;2024-02-21T08:38:47;57455.81;;;-146.93;92.83
21664;BME280;10993;52.510;13.456;2024-02-21T08:43:49;57395.06;;;-146.93;91.81
21664;BME280;10993;52.510;13.456;2024-02-21T08:48:49;57320.13;;;-146.93;90.79
21664;BME280;10993;52.510;13.456;2024-02-21T08:53:51;57615.81;;;-146.93;90.43
21664;BME280;10993;52.510;13.456;2024-02-21T08:58:53;57322.16;;;-146.93;90.46
21664;BME280;10993;52.510;13.456;2024-02-21T09:03:53;57060.94;;;-146.93;89.35
21664;BME280;10993;52.510;13.456;2024-02-21T09:08:56;57135.84;;;-146.93;87.98
21664;BME280;10993;52.510;13.456;2024-02-21T09:13:57;57077.13;;;-146.93;86.48
21664;BME280;10993;52.510;13.456;2024-02-21T09:18:58;57123.69;;;-146.93;86.93
21664;BME280;10993;52.510;13.456;2024-02-21T09:23:58;57117.63;;;-146.93;86.41
21664;BME280;10993;52.510;13.456;2024-02-21T09:29:00;57109.53;;;-146.93;85.45
21664;BME280;10993;52.510;13.456;2024-02-21T09:34:00;57077.13;;;-146.93;83.24
21664;BME280;10993;52.510;13.456;2024-02-21T09:39:01;57024.47;;;-146.93;82.62
21664;BME280;10993;52.510;13.456;2024-02-21T09:44:03;57034.59;;;-146.93;82.21
21664;BME280;10993;52.510;13.456;2024-02-21T09:49:10;56981.94;;;-146.93;80.54
21664;BME280;10993;52.510;13.456;2024-02-21T09:54:14;56955.63;;;-146.93;78.41
21664;BME280;10993;52.510;13.456;2024-02-21T09:59:16;56913.09;;;-146.93;77.03
21664;BME280;10993;52.510;13.456;2024-02-21T10:04:17;56963.72;;;-146.93;77.21
21664;BME280;10993;52.510;13.456;2024-02-21T10:09:22;56973.84;;;-146.93;77.77
21664;BME280;10993;52.510;13.456;2024-02-21T10:14:24;56955.63;;;-146.93;78.11
21664;BME280;10993;52.510;13.456;2024-02-21T10:19:24;56965.75;;;-146.93;76.73
21664;BME280;10993;52.510;13.456;2024-02-21T10:24:26;56939.44;;;-146.93;77.82
21664;BME280;10993;52.510;13.456;2024-02-21T10:29:28;56935.38;;;-146.93;78.45
21664;BME280;10993;52.510;13.456;2024-02-21T10:34:28;56941.44;;;-146.93;76.63
21664;BME280;10993;52.510;13.456;2024-02-21T10:39:28;56941.44;;;-146.93;77.74
21664;BME280;10993;52.510;13.456;2024-02-21T10:44:31;56925.25;;;-146.93;76.55
21664;BME280;10993;52.510;13.456;2024-02-21T10:49:32;56917.16;;;-146.93;75.05
21664;BME280;10993;52.510;13.456;2024-02-21T10:54:44;57925.72;;;-146.93;74.21
21664;BME280;10993;52.510;13.456;2024-02-21T10:59:48;56990.06;;;-146.93;73.41
21664;BME280;10993;52.510;13.456;2024-02-21T11:04:49;56943.47;;;-146.93;74.06
21664;BME280;10993;52.510;13.456;2024-02-21T11:09:51;56858.44;;;-146.93;75.80
21664;BME280;10993;52.510;13.456;2024-02-21T11:15:03;56931.34;;;-146.93;78.12
21664;BME280;10993;52.510;13.456;2024-02-21T11:20:11;57002.19;;;-146.93;75.98
21664;BME280;10993;52.510;13.456;2024-02-21T11:25:12;57052.81;;;-146.93;68.39
21664;BME280;10993;52.510;13.456;2024-02-21T11:30:26;57060.94;;;-146.93;64.81
21664;BME280;10993;52.510;13.456;2024-02-21T11:35:31;57058.91;;;-146.93;64.37
21664;BME280;10993;52.510;13.456;2024-02-21T11:40:33;56939.44;;;-146.93;60.06
21664;BME280;10993;52.510;13.456;2024-02-21T11:45:35;57188.50;;;-146.93;51.78
21664;BME280;10993;52.510;13.456;2024-02-21T11:50:35;57168.25;;;-146.93;49.98
21664;BME280;10993;52.510;13.456;2024-02-21T11:55:36;57107.50;;;-146.93;51.37
21664;BME280;10993;52.510;13.456;2024-02-21T12:00:38;57186.47;;;-146.93;50.14
21664;BME280;10993;52.510;13.456;2024-02-21T12:05:38;57297.84;;;-146.93;45.17
21664;BME280;10993;52.510;13.456;2024-02-21T12:10:39;57472.03;;;-146.93;42.99
21664;BME280;10993;52.510;13.456;2024-02-21T12:15:40;57382.91;;;-146.93;41.51
21664;BME280;10993;52.510;13.456;2024-02-21T12:20:41;57196.59;;;-146.93;43.85
21664;BME280;10993;52.510;13.456;2024-02-21T12:25:43;57129.78;;;-146.93;46.62
21664;BME280;10993;52.510;13.456;2024-02-21T12:30:45;57131.81;;;-146.93;48.56
21664;BME280;10993;52.510;13.456;2024-02-21T12:35:45;57170.28;;;-146.93;49.32
21664;BME280;10993;52.510;13.456;2024-02-21T12:40:45;57206.72;;;-146.93;46.52
21664;BME280;10993;52.510;13.456;2024-02-21T12:45:47;57127.75;;;-146.93;47.09
21664;BME280;10993;52.510;13.456;2024-02-21T12:50:49;57050.81;;;-146.93;51.40
21664;BME280;10993;52.510;13.456;2024-02-21T12:55:52;57050.81;;;-146.93;53.51
21664;BME280;10993;52.510;13.456;2024-02-21T13:00:54;56973.84;;;-146.93;53.63
21664;BME280;10993;52.510;13.456;2024-02-21T13:05:54;57050.81;;;-146.93;52.21
21664;BME280;10993;52.510;13.456;2024-02-21T13:10:55;57040.69;;;-146.93;51.02
21664;BME280;10993;52.510;13.456;2024-02-21T13:15:57;57994.56;;;-146.93;52.55
21664;BME280;10993;52.510;13.456;2024-02-21T13:20:57;57054.84;;;-146.93;52.28
21664;BME280;10993;52.510;13.456;2024-02-21T13:25:57;57083.19;;;-146.93;51.29
21664;BME280;10993;52.510;13.456;2024-02-21T13:30:59;57030.56;;;-146.93;50.77
21664;BME280;10993;52.510;13.456;2024-02-21T13:35:59;57024.47;;;-146.93;52.80
21664;BME280;10993;52.510;13.456;2024-02-21T13:41:02;56892.84;;;-146.93;56.95
21664;BME280;10993;52.510;13.456;2024-02-21T13:46:04;56921.22;;;-146.93;58.58
21664;BME280;10993;52.510;13.456;2024-02-21T13:51:05;56925.25;;;-146.93;61.75
21664;BME280;10993;52.510;13.456;2024-02-21T13:56:06;56925.25;;;-146.93;61.86
21664;BME280;10993;52.510;13.456;2024-02-21T14:01:07;56900.97;;;-146.93;63.44
21664;BME280;10993;52.510;13.456;2024-02-21T14:06:09;56880.72;;;-146.93;64.49
21664;BME280;10993;52.510;13.456;2024-02-21T14:11:09;56878.69;;;-146.93;62.78
21664;BME280;10993;52.510;13.456;2024-02-21T14:16:11;56931.34;;;-146.93;61.22
21664;BME280;10993;52.510;13.456;2024-02-21T14:21:14;56905.00;;;-146.93;62.37
21664;BME280;10993;52.510;13.456;2024-02-21T14:26:15;56917.16;;;-146.93;61.16
21664;BME280;10993;52.510;13.456;2024-02-21T14:31:16;56923.22;;;-146.93;60.92
21664;BME280;10993;52.510;13.456;2024-02-21T14:36:17;56917.16;;;-146.93;60.64
21664;BME280;10993;52.510;13.456;2024-02-21T14:41:17;56781.50;;;-146.93;60.53
21664;BME280;10993;52.510;13.456;2024-02-21T14:46:19;56929.31;;;-146.93;59.90
21664;BME280;10993;52.510;13.456;2024-02-21T14:51:20;56878.69;;;-146.93;60.57
21664;BME280;10993;52.510;13.456;2024-02-21T14:56:20;56921.22;;;-146.93;60.66
21664;BME280;10993;52.510;13.456;2024-02-21T15:01:22;56834.13;;;-146.93;62.41
21664;BME280;10993;52.510;13.456;2024-02-21T15:06:22;56793.63;;;-146.93;64.08
21664;BME280;10993;52.510;13.456;2024-02-21T15:11:23;56872.59;;;-146.93;63.36
21664;BME280;10993;52.510;13.456;2024-02-21T15:16:24;56832.13;;;-146.93;62.73
21664;BME280;10993;52.510;13.456;2024-02-21T15:21:25;56882.72;;;-146.93;64.41
21664;BME280;10993;52.510;13.456;2024-02-21T15:26:25;56864.50;;;-146.93;63.79
21664;BME280;10993;52.510;13.456;2024-02-21T15:31:27;56892.84;;;-146.93;62.74
21664;BME280;10993;52.510;13.456;2024-02-21T15:36:27;56872.59;;;-146.93;64.87
21664;BME280;10993;52.510;13.456;2024-02-21T15:41:28;56797.69;;;-146.93;67.26
21664;BME280;10993;52.510;13.456;2024-02-21T15:46:30;56840.22;;;-146.93;68.78
21664;BME280;10993;52.510;13.456;2024-02-21T15:51:36;56781.50;;;-146.93;70.21
21664;BME280;10993;52.510;13.456;2024-02-21T15:56:40;56775.41;;;-146.93;70.85
21664;BME280;10993;52.510;13.456;2024-02-21T16:01:41;56832.13;;;-146.93;72.45
21664;BME280;10993;52.510;13.456;2024-02-21T16:06:43;56755.16;;;-146.93;73.07
21664;BME280;10993;52.510;13.456;2024-02-21T16:11:46;56801.75;;;-146.93;73.33
21664;BME280;10993;52.510;13.456;2024-02-21T16:16:49;56803.75;;;-146.93;74.65
21664;BME280;10993;52.510;13.456;2024-02-21T16:21:49;56718.72;;;-146.93;75.41
21664;BME280;10993;52.510;13.456;2024-02-21T16:26:49;56815.91;;;-146.93;75.77
21664;BME280;10993;52.510;13.456;2024-02-21T16:31:51;56822.00;;;-146.93;77.19
21664;BME280;10993;52.510;13.456;2024-02-21T16:36:54;56815.91;;;-146.93;77.65
21664;BME280;10993;52.510;13.456;2024-02-21T16:41:54;56819.97;;;-146.93;79.03
21664;BME280;10993;52.510;13.456;2024-02-21T16:47:01;56763.28;;;-146.93;78.02
21664;BME280;10993;52.510;13.456;2024-02-21T16:52:03;56852.34;;;-146.93;78.92
21664;BME280;10993;52.510;13.456;2024-02-21T16:57:04;56807.81;;;-146.93;77.90
21664;BME280;10993;52.510;13.456;2024-02-21T17:02:07;56807.81;;;-146.93;77.72
21664;BME280;10993;52.510;13.456;2024-02-21T17:07:07;56828.06;;;-146.93;77.83
21664;BME280;10993;52.510;13.456;2024-02-21T17:12:08;56815.91;;;-146.93;77.95
21664;BME280;10993;52.510;13.456;2024-02-21T17:17:09;56795.66;;;-146.93;79.42
21664;BME280;10993;52.510;13.456;2024-02-21T17:22:10;56846.28;;;-146.93;79.83
21664;BME280;10993;52.510;13.456;2024-02-21T17:27:10;56773.38;;;-146.93;80.72
21664;BME280;10993;52.510;13.456;2024-02-21T17:32:12;56824.00;;;-146.93;80.74
21664;BME280;10993;52.510;13.456;2024-02-21T17:37:12;56824.00;;;-146.93;80.78
21664;BME280;10993;52.510;13.456;2024-02-21T17:42:13;56815.91;;;-146.93;81.72
21664;BME280;10993;52.510;13.456;2024-02-21T17:47:14;56840.22;;;-146.93;81.85
21664;BME280;10993;52.510;13.456;2024-02-21T17:52:15;56832.13;;;-146.93;82.67
21664;BME280;10993;52.510;13.456;2024-02-21T17:57:15;56868.56;;;-146.93;82.93
21664;BME280;10993;52.510;13.456;2024-02-21T18:02:17;56872.59;;;-146.93;83.41
21664;BME280;10993;52.510;13.456;2024-02-21T18:07:20;56864.50;;;-146.93;83.16
21664;BME280;10993;52.510;13.456;2024-02-21T18:12:20;56868.56;;;-146.93;83.53
21664;BME280;10993;52.510;13.456;2024-02-21T18:17:22;56874.63;;;-146.93;84.42
21664;BME280;10993;52.510;13.456;2024-02-21T18:22:23;56799.72;;;-146.93;85.03
21664;BME280;10993;52.510;13.456;2024-02-21T18:27:23;56911.09;;;-146.93;86.29
21664;BME280;10993;52.510;13.456;2024-02-21T18:32:25;56811.88;;;-146.93;86.63
21664;BME280;10993;52.510;13.456;2024-02-21T18:37:26;56931.34;;;-146.93;86.41
21664;BME280;10993;52.510;13.456;2024-02-21T18:42:27;56819.97;;;-146.93;86.90
21664;BME280;10993;52.510;13.456;2024-02-21T18:47:29;56860.47;;;-146.93;86.51
21664;BME280;10993;52.510;13.456;2024-02-21T18:52:29;57706.97;;;-146.93;86.66
21664;BME280;10993;52.510;13.456;2024-02-21T18:57:30;57389.00;;;-146.93;86.72
21664;BME280;10993;52.510;13.456;2024-02-21T19:02:33;56913.09;;;-146.93;86.32
21664;BME280;10993;52.510;13.456;2024-02-21T19:07:33;56949.56;;;-146.93;86.81
21664;BME280;10993;52.510;13.456;2024-02-21T19:12:34;56945.50;;;-146.93;86.50
21664;BME280;10993;52.510;13.456;2024-02-21T19:17:38;56963.72;;;-146.93;86.95
21664;BME280;10993;52.510;13.456;2024-02-21T19:22:39;56941.44;;;-146.93;87.42
21664;BME280;10993;52.510;13.456;2024-02-21T19:27:41;56929.31;;;-146.93;87.63
21664;BME280;10993;52.510;13.456;2024-02-21T19:32:43;56973.84;;;-146.93;87.60
21664;BME280;10993;52.510;13.456;2024-02-21T19:37:43;57016.38;;;-146.93;88.09
21664;BME280;10993;52.510;13.456;2024-02-21T19:42:44;57040.69;;;-146.93;88.55
21664;BME280;10993;52.510;13.456;2024-02-21T19:47:45;57500.38;;;-146.93;89.03
21664;BME280;10993;52.510;13.456;2024-02-21T19:52:46;56986.00;;;-146.93;89.57
21664;BME280;10993;52.510;13.456;2024-02-21T19:57:46;56951.59;;;-146.93;89.56
21664;BME280;10993;52.510;13.456;2024-02-21T20:02:48;57016.38;;;-146.93;89.56
21664;BME280;10993;52.510;13.456;2024-02-21T20:07:49;56927.28;;;-146.93;89.25
21664;BME280;10993;52.510;13.456;2024-02-21T20:12:49;56988.03;;;-146.93;88.30
21664;BME280;10993;52.510;13.456;2024-02-21T20:17:51;57026.50;;;-146.93;88.51
21664;BME280;10993;52.510;13.456;2024-02-21T20:22:54;57008.28;;;-146.93;88.07
21664;BME280;10993;52.510;13.456;2024-02-21T20:27:54;56998.16;;;-146.93;88.36
21664;BME280;10993;52.510;13.456;2024-02-21T20:32:56;57050.81;;;-146.93;88.55
21664;BME280;10993;52.510;13.456;2024-02-21T20:37:56;56990.06;;;-146.93;88.09
21664;BME280;10993;52.510;13.456;2024-02-21T20:42:57;57020.44;;;-146.93;87.94
21664;BME280;10993;52.510;13.456;2024-02-21T20:47:59;56953.59;;;-146.93;87.23
21664;BME280;10993;52.510;13.456;2024-02-21T20:53:00;56990.06;;;-146.93;86.70
21664;BME280;10993;52.510;13.456;2024-02-21T20:58:03;56953.59;;;-146.93;85.96
21664;BME280;10993;52.510;13.456;2024-02-21T21:03:05;56925.25;;;-146.93;85.05
21664;BME280;10993;52.510;13.456;2024-02-21T21:08:06;56864.50;;;-146.93;83.67
21664;BME280;10993;52.510;13.456;2024-02-21T21:13:06;57152.06;;;-146.93;83.53
21664;BME280;10993;52.510;13.456;2024-02-21T21:18:09;56824.00;;;-146.93;82.69
21664;BME280;10993;52.510;13.456;2024-02-21T21:23:09;56852.34;;;-146.93;81.75
21664;BME280;10993;52.510;13.456;2024-02-21T21:28:09;56933.34;;;-146.93;80.68
21664;BME280;10993;52.510;13.456;2024-02-21T21:33:11;56852.34;;;-146.93;79.67
21664;BME280;10993;52.510;13.456;2024-02-21T21:38:11;56769.34;;;-146.93;78.18
21664;BME280;10993;52.510;13.456;2024-02-21T21:43:13;56795.66;;;-146.93;78.12
21664;BME280;10993;52.510;13.456;2024-02-21T21:48:15;56807.81;;;-146.93;76.75
21664;BME280;10993;52.510;13.456;2024-02-21T21:53:15;56706.56;;;-146.93;75.84
21664;BME280;10993;52.510;13.456;2024-02-21T21:58:15;56783.50;;;-146.93;75.97
21664;BME280;10993;52.510;13.456;2024-02-21T22:03:17;56771.38;;;-146.93;74.77
21664;BME280;10993;52.510;13.456;2024-02-21T22:08:18;56763.28;;;-146.93;74.10
21664;BME280;10993;52.510;13.456;2024-02-21T22:13:19;56793.63;;;-146.93;73.43
21664;BME280;10993;52.510;13.456;2024-02-21T22:18:21;56791.63;;;-146.93;73.80
21664;BME280;10993;52.510;13.456;2024-02-21T22:23:22;56765.28;;;-146.93;73.90
21664;BME280;10993;52.510;13.456;2024-02-21T22:28:22;56714.66;;;-146.93;72.85
21664;BME280;10993;52.510;13.456;2024-02-21T22:33:24;56736.94;;;-146.93;72.62
21664;BME280;10993;52.510;13.456;2024-02-21T22:38:26;56718.72;;;-146.93;73.39
21664;BME280;10993;52.510;13.456;2024-02-21T22:43:27;56657.97;;;-146.93;73.01
21664;BME280;10993;52.510;13.456;2024-02-21T22:48:29;56777.44;;;-146.93;73.17
21664;BME280;10993;52.510;13.456;2024-02-21T22:53:29;56726.81;;;-146.93;73.55
21664;BME280;10993;52.510;13.456;2024-02-21T22:58:30;56741.00;;;-146.93;73.00
21664;BME280;10993;52.510;13.456;2024-02-21T23:03:31;56761.25;;;-146.93;72.24
21664;BME280;10993;52.510;13.456;2024-02-21T23:08:32;56779.47;;;-146.93;72.30
21664;BME280;10993;52.510;13.456;2024-02-21T23:13:32;56749.09;;;-146.93;72.65
21664;BME280;10993;52.510;13.456;2024-02-21T23:18:36;56745.03;;;-146.93;72.00
21664;BME280;10993;52.510;13.456;2024-02-21T23:23:37;56696.44;;;-146.93;71.90
21664;BME280;10993;52.510;13.456;2024-02-21T23:28:41;56765.28;;;-146.93;71.79
21664;BME280;10993;52.510;13.456;2024-02-21T23:33:43;56795.66;;;-146.93;71.81
21664;BME280;10993;52.510;13.456;2024-02-21T23:38:43;56763.28;;;-146.93;71.72
21664;BME280;10993;52.510;13.456;2024-02-21T23:43:44;56753.16;;;-146.93;72.36
21664;BME280;10993;52.510;13.456;2024-02-21T23:48:46;56759.22;;;-146.93;71.65
21664;BME280;10993;52.510;13.456;2024-02-21T23:53:46;56702.53;;;-146.93;72.48
21664;BME280;10993;52.510;13.456;2024-02-21T23:58:46;56749.09;;;-146.93;72.34
